createdAt,value
2022-11-20T00:00:36.461Z,3.64
2022-11-20T00:01:40.652Z,3.65
2022-11-20T00:02:44.730Z,3.65
2022-11-20T00:03:48.921Z,3.66
2022-11-20T00:04:53.103Z,3.66
2022-11-20T00:05:57.329Z,3.64
2022-11-20T00:07:01.527Z,3.60
2022-11-20T00:08:05.566Z,3.56
2022-11-20T00:09:09.702Z,3.51
2022-11-20T00:10:13.940Z,3.49
2022-11-20T00:11:18.045Z,3.46
2022-11-20T00:12:22.194Z,3.43
2022-11-20T00:13:26.322Z,3.43
2022-11-20T00:14:30.517Z,3.43
2022-11-20T00:15:34.779Z,3.43
2022-11-20T00:16:38.859Z,3.43
2022-11-20T00:17:43.091Z,3.45
2022-11-20T00:18:47.285Z,3.47
2022-11-20T00:19:51.391Z,3.47
2022-11-20T00:20:55.544Z,3.46
2022-11-20T00:21:59.701Z,3.44
2022-11-20T00:23:03.904Z,3.45
2022-11-20T00:24:08.008Z,3.46
2022-11-20T00:25:12.152Z,3.48
2022-11-20T00:26:16.319Z,3.50
2022-11-20T00:27:20.373Z,3.50
2022-11-20T00:28:24.569Z,3.50
2022-11-20T00:29:28.682Z,3.50
2022-11-20T00:30:32.823Z,3.50
2022-11-20T00:31:36.979Z,3.50
2022-11-20T00:32:41.128Z,3.49
2022-11-20T00:33:45.265Z,3.47
2022-11-20T00:34:49.298Z,3.44
2022-11-20T00:35:53.610Z,3.43
2022-11-20T00:36:57.838Z,3.43
2022-11-20T00:38:01.909Z,3.41
2022-11-20T00:39:06.140Z,3.38
2022-11-20T00:40:10.231Z,3.36
2022-11-20T00:41:14.364Z,3.36
2022-11-20T00:42:18.505Z,3.36
2022-11-20T00:43:22.654Z,3.38
2022-11-20T00:44:26.698Z,3.40
2022-11-20T00:45:30.941Z,3.42
2022-11-20T00:46:35.062Z,3.44
2022-11-20T00:47:39.225Z,3.45
2022-11-20T00:48:43.488Z,3.46
2022-11-20T00:49:47.610Z,3.49
2022-11-20T00:50:51.856Z,3.51
2022-11-20T00:51:55.959Z,3.52
2022-11-20T00:53:00.142Z,3.54
2022-11-20T00:54:04.257Z,3.56
2022-11-20T00:55:08.416Z,3.58
2022-11-20T00:56:12.670Z,3.59
2022-11-20T00:57:16.862Z,3.57
2022-11-20T00:58:21.059Z,3.56
2022-11-20T00:59:25.156Z,3.55
2022-11-20T01:00:29.327Z,3.54
2022-11-20T01:01:33.546Z,3.54
2022-11-20T01:02:37.683Z,3.54
2022-11-20T01:03:41.678Z,3.54
2022-11-20T01:04:45.951Z,3.53
2022-11-20T01:05:49.919Z,3.52
2022-11-20T01:06:54.096Z,3.52
2022-11-20T01:07:58.253Z,3.53
2022-11-20T01:09:02.538Z,3.54
2022-11-20T01:10:06.567Z,3.54
2022-11-20T01:11:10.763Z,3.53
2022-11-20T01:12:15.053Z,3.51
2022-11-20T01:13:22.915Z,3.51
2022-11-20T01:14:23.142Z,3.49
2022-11-20T01:15:27.365Z,3.47
2022-11-20T01:16:31.517Z,3.47
2022-11-20T01:17:35.737Z,3.45
2022-11-20T01:18:39.732Z,3.44
2022-11-20T01:19:43.966Z,3.45
2022-11-20T01:20:48.154Z,3.46
2022-11-20T01:21:52.303Z,3.48
2022-11-20T01:22:56.466Z,3.49
2022-11-20T01:24:00.611Z,3.48
2022-11-20T01:25:04.721Z,3.49
2022-11-20T01:26:08.991Z,3.49
2022-11-20T01:27:13.100Z,3.50
2022-11-20T01:28:17.235Z,3.51
2022-11-20T01:29:21.725Z,3.51
2022-11-20T01:30:25.542Z,3.52
2022-11-20T01:31:29.686Z,3.54
2022-11-20T01:32:33.837Z,3.55
2022-11-20T01:33:37.989Z,3.56
2022-11-20T01:34:42.248Z,3.57
2022-11-20T01:35:46.462Z,3.59
2022-11-20T01:36:50.514Z,3.60
2022-11-20T01:37:54.641Z,3.59
2022-11-20T01:38:58.875Z,3.58
2022-11-20T01:40:02.948Z,3.58
2022-11-20T01:41:07.063Z,3.57
2022-11-20T01:42:11.291Z,3.57
2022-11-20T01:43:15.480Z,3.54
2022-11-20T01:44:19.567Z,3.52
2022-11-20T01:45:23.726Z,3.52
2022-11-20T01:46:27.817Z,3.52
2022-11-20T01:47:31.972Z,3.52
2022-11-20T01:48:36.126Z,3.52
2022-11-20T01:49:40.361Z,3.51
2022-11-20T01:50:44.463Z,3.50
2022-11-20T01:51:48.630Z,3.50
2022-11-20T01:52:52.699Z,3.48
2022-11-20T01:53:56.870Z,3.49
2022-11-20T01:55:01.037Z,3.50
2022-11-20T01:56:05.260Z,3.50
2022-11-20T01:57:09.377Z,3.51
2022-11-20T01:58:13.625Z,3.53
2022-11-20T01:59:18.054Z,3.55
2022-11-20T02:00:21.826Z,3.55
2022-11-20T02:01:26.000Z,3.56
2022-11-20T02:02:30.157Z,3.55
2022-11-20T02:03:34.310Z,3.56
2022-11-20T02:04:38.583Z,3.57
2022-11-20T02:05:42.682Z,3.59
2022-11-20T02:06:46.825Z,3.59
2022-11-20T02:07:50.974Z,3.60
2022-11-20T02:08:55.235Z,3.61
2022-11-20T02:09:59.297Z,3.61
2022-11-20T02:11:03.448Z,3.58
2022-11-20T02:12:07.580Z,3.56
2022-11-20T02:13:11.641Z,3.55
2022-11-20T02:14:15.952Z,3.56
2022-11-20T02:15:20.163Z,3.57
2022-11-20T02:16:24.283Z,3.56
2022-11-20T02:17:28.439Z,3.57
2022-11-20T02:18:32.633Z,3.57
2022-11-20T02:19:36.775Z,3.58
2022-11-20T02:20:40.893Z,3.55
2022-11-20T02:21:45.047Z,3.52
2022-11-20T02:22:49.326Z,3.47
2022-11-20T02:23:53.388Z,3.45
2022-11-20T02:24:57.620Z,3.43
2022-11-20T02:26:01.701Z,3.43
2022-11-20T02:27:05.934Z,3.43
2022-11-20T02:28:10.001Z,3.44
2022-11-20T02:29:14.155Z,3.46
2022-11-20T02:30:18.414Z,3.48
2022-11-20T02:31:22.515Z,3.51
2022-11-20T02:32:26.668Z,3.52
2022-11-20T02:33:30.816Z,3.54
2022-11-20T02:34:34.974Z,3.56
2022-11-20T02:35:39.214Z,3.58
2022-11-20T02:36:43.305Z,3.58
2022-11-20T02:37:47.540Z,3.60
2022-11-20T02:38:51.771Z,3.61
2022-11-20T02:39:55.860Z,3.61
2022-11-20T02:41:00.015Z,3.61
2022-11-20T02:42:04.267Z,3.62
2022-11-20T02:43:08.392Z,3.63
2022-11-20T02:44:12.493Z,3.63
2022-11-20T02:45:16.736Z,3.60
2022-11-20T02:46:20.859Z,3.59
2022-11-20T02:47:24.979Z,3.59
2022-11-20T02:48:33.549Z,3.59
2022-11-20T02:49:33.252Z,3.59
2022-11-20T02:50:37.384Z,3.59
2022-11-20T02:51:41.535Z,3.57
2022-11-20T02:52:45.681Z,3.56
2022-11-20T02:53:49.799Z,3.56
2022-11-20T02:54:54.047Z,3.57
2022-11-20T02:55:58.157Z,3.56
2022-11-20T02:57:02.250Z,3.55
2022-11-20T02:58:06.378Z,3.54
2022-11-20T02:59:10.516Z,3.53
2022-11-20T03:00:14.802Z,3.54
2022-11-20T03:01:19.034Z,3.56
2022-11-20T03:02:22.982Z,3.57
2022-11-20T03:03:27.132Z,3.58
2022-11-20T03:04:31.294Z,3.59
2022-11-20T03:05:35.461Z,3.59
2022-11-20T03:06:39.689Z,3.56
2022-11-20T03:07:43.954Z,3.53
2022-11-20T03:08:48.050Z,3.52
2022-11-20T03:09:52.057Z,3.52
2022-11-20T03:10:56.159Z,3.51
2022-11-20T03:12:00.472Z,3.51
2022-11-20T03:13:04.578Z,3.51
2022-11-20T03:14:08.737Z,3.52
2022-11-20T03:15:12.868Z,3.52
2022-11-20T03:16:17.000Z,3.53
2022-11-20T03:17:21.241Z,3.53
2022-11-20T03:18:25.319Z,3.53
2022-11-20T03:19:29.509Z,3.53
2022-11-20T03:20:33.698Z,3.52
2022-11-20T03:21:37.825Z,3.50
2022-11-20T03:22:41.955Z,3.48
2022-11-20T03:23:46.094Z,3.46
2022-11-20T03:24:50.244Z,3.46
2022-11-20T03:25:54.415Z,3.46
2022-11-20T03:26:58.660Z,3.48
2022-11-20T03:28:02.759Z,3.49
2022-11-20T03:29:06.891Z,3.48
2022-11-20T03:30:11.155Z,3.48
2022-11-20T03:31:15.144Z,3.47
2022-11-20T03:32:19.414Z,3.48
2022-11-20T03:33:23.667Z,3.49
2022-11-20T03:34:27.866Z,3.50
2022-11-20T03:35:32.035Z,3.50
2022-11-20T03:36:36.148Z,3.50
2022-11-20T03:37:40.382Z,3.50
2022-11-20T03:38:44.471Z,3.51
2022-11-20T03:39:48.595Z,3.51
2022-11-20T03:40:52.710Z,3.48
2022-11-20T03:41:56.876Z,3.44
2022-11-20T03:43:01.034Z,3.43
2022-11-20T03:44:05.223Z,3.42
2022-11-20T03:45:09.288Z,3.43
2022-11-20T03:46:13.390Z,3.43
2022-11-20T03:47:17.701Z,3.41
2022-11-20T03:48:21.764Z,3.40
2022-11-20T03:49:25.818Z,3.39
2022-11-20T03:50:30.114Z,3.36
2022-11-20T03:51:34.118Z,3.35
2022-11-20T03:52:38.318Z,3.33
2022-11-20T03:53:42.473Z,3.33
2022-11-20T03:54:46.605Z,3.32
2022-11-20T03:55:50.744Z,3.32
2022-11-20T03:56:54.886Z,3.34
2022-11-20T03:57:58.948Z,3.36
2022-11-20T03:59:03.038Z,3.38
2022-11-20T04:00:07.200Z,3.38
2022-11-20T04:01:11.425Z,3.39
2022-11-20T04:02:15.662Z,3.40
2022-11-20T04:03:19.810Z,3.42
2022-11-20T04:04:24.019Z,3.43
2022-11-20T04:05:28.120Z,3.41
2022-11-20T04:06:32.260Z,3.39
2022-11-20T04:07:36.502Z,3.36
2022-11-20T04:08:40.537Z,3.33
2022-11-20T04:09:44.706Z,3.29
2022-11-20T04:10:48.902Z,3.23
2022-11-20T04:11:52.999Z,3.19
2022-11-20T04:12:57.108Z,3.18
2022-11-20T04:14:01.335Z,3.19
2022-11-20T04:15:05.319Z,3.21
2022-11-20T04:16:09.511Z,3.23
2022-11-20T04:17:13.678Z,3.26
2022-11-20T04:18:17.806Z,3.29
2022-11-20T04:19:22.329Z,3.29
2022-11-20T04:20:26.159Z,3.27
2022-11-20T04:21:30.286Z,3.28
2022-11-20T04:22:34.429Z,3.27
2022-11-20T04:23:38.689Z,3.27
2022-11-20T04:24:42.780Z,3.29
2022-11-20T04:25:46.973Z,3.31
2022-11-20T04:26:51.102Z,3.29
2022-11-20T04:27:55.229Z,3.30
2022-11-20T04:28:59.398Z,3.32
2022-11-20T04:30:03.516Z,3.33
2022-11-20T04:31:07.766Z,3.35
2022-11-20T04:32:11.869Z,3.35
2022-11-20T04:33:16.010Z,3.31
2022-11-20T04:34:20.162Z,3.28
2022-11-20T04:35:24.289Z,3.27
2022-11-20T04:36:28.331Z,3.28
2022-11-20T04:37:32.544Z,3.29
2022-11-20T04:38:36.559Z,3.30
2022-11-20T04:39:40.742Z,3.31
2022-11-20T04:40:44.916Z,3.32
2022-11-20T04:41:49.062Z,3.33
2022-11-20T04:42:53.180Z,3.32
2022-11-20T04:43:57.326Z,3.31
2022-11-20T04:45:01.481Z,3.32
2022-11-20T04:46:05.639Z,3.33
2022-11-20T04:47:09.640Z,3.35
2022-11-20T04:48:13.872Z,3.36
2022-11-20T04:49:18.129Z,3.34
2022-11-20T04:50:22.208Z,3.30
2022-11-20T04:51:26.368Z,3.27
2022-11-20T04:52:30.508Z,3.25
2022-11-20T04:53:34.575Z,3.23
2022-11-20T04:54:38.779Z,3.24
2022-11-20T04:55:42.902Z,3.23
2022-11-20T04:56:48.711Z,3.24
2022-11-20T04:57:51.201Z,3.25
2022-11-20T04:58:55.466Z,3.22
2022-11-20T04:59:59.455Z,3.18
2022-11-20T05:01:03.640Z,3.16
2022-11-20T05:02:07.780Z,3.14
2022-11-20T05:03:11.933Z,3.11
2022-11-20T05:04:15.961Z,3.09
2022-11-20T05:05:20.172Z,3.07
2022-11-20T05:06:24.211Z,3.05
2022-11-20T05:07:28.344Z,3.03
2022-11-20T05:08:32.437Z,3.01
2022-11-20T05:09:36.567Z,3.02
2022-11-20T05:10:40.687Z,3.04
2022-11-20T05:11:48.029Z,3.06
2022-11-20T05:12:48.935Z,3.08
2022-11-20T05:13:53.015Z,3.10
2022-11-20T05:14:57.237Z,3.08
2022-11-20T05:16:01.349Z,3.07
2022-11-20T05:17:05.400Z,3.06
2022-11-20T05:18:09.721Z,3.05
2022-11-20T05:19:16.785Z,3.03
2022-11-20T05:20:20.023Z,2.99
2022-11-20T05:21:24.210Z,2.96
2022-11-20T05:22:28.275Z,2.96
2022-11-20T05:23:32.524Z,2.98
2022-11-20T05:24:36.603Z,3.01
2022-11-20T05:25:40.750Z,3.05
2022-11-20T05:26:44.912Z,3.09
2022-11-20T05:27:49.064Z,3.12
2022-11-20T05:28:53.223Z,3.15
2022-11-20T05:29:57.381Z,3.17
2022-11-20T05:31:01.557Z,3.19
2022-11-20T05:32:05.725Z,3.19
2022-11-20T05:33:09.869Z,3.20
2022-11-20T05:34:14.082Z,3.18
2022-11-20T05:35:18.174Z,3.18
2022-11-20T05:36:22.341Z,3.15
2022-11-20T05:37:26.532Z,3.13
2022-11-20T05:38:30.765Z,3.13
2022-11-20T05:39:34.948Z,3.11
2022-11-20T05:40:39.070Z,3.09
2022-11-20T05:41:43.306Z,3.09
2022-11-20T05:42:47.417Z,3.10
2022-11-20T05:43:51.536Z,3.10
2022-11-20T05:44:55.576Z,3.11
2022-11-20T05:45:59.787Z,3.10
2022-11-20T05:47:04.050Z,3.10
2022-11-20T05:48:08.122Z,3.10
2022-11-20T05:49:12.310Z,3.09
2022-11-20T05:50:16.493Z,3.06
2022-11-20T05:51:20.477Z,3.04
2022-11-20T05:52:24.655Z,3.02
2022-11-20T05:53:28.817Z,3.01
2022-11-20T05:54:32.949Z,3.01
2022-11-20T05:55:37.058Z,3.03
2022-11-20T05:56:41.202Z,3.04
2022-11-20T05:57:45.359Z,3.04
2022-11-20T05:58:49.520Z,3.03
2022-11-20T05:59:53.544Z,3.04
2022-11-20T06:00:57.754Z,3.05
2022-11-20T06:02:01.933Z,3.05
2022-11-20T06:03:06.024Z,3.05
2022-11-20T06:04:10.199Z,3.06
2022-11-20T06:05:14.335Z,3.06
2022-11-20T06:06:18.468Z,3.08
2022-11-20T06:07:22.793Z,3.08
2022-11-20T06:08:29.739Z,3.08
2022-11-20T06:09:32.828Z,3.08
2022-11-20T06:10:36.927Z,3.07
2022-11-20T06:11:41.242Z,3.08
2022-11-20T06:12:45.375Z,3.09
2022-11-20T06:13:49.510Z,3.09
2022-11-20T06:14:53.616Z,3.11
2022-11-20T06:15:57.823Z,3.13
2022-11-20T06:17:01.911Z,3.15
2022-11-20T06:18:06.082Z,3.16
2022-11-20T06:19:10.188Z,3.14
2022-11-20T06:20:14.450Z,3.12
2022-11-20T06:21:18.647Z,3.12
2022-11-20T06:22:22.761Z,3.13
2022-11-20T06:23:26.916Z,3.15
2022-11-20T06:24:31.179Z,3.16
2022-11-20T06:25:35.268Z,3.18
2022-11-20T06:26:39.439Z,3.21
2022-11-20T06:27:43.469Z,3.23
2022-11-20T06:28:47.701Z,3.24
2022-11-20T06:29:51.827Z,3.26
2022-11-20T06:30:55.997Z,3.28
2022-11-20T06:32:00.196Z,3.28
2022-11-20T06:33:04.443Z,3.29
2022-11-20T06:34:08.552Z,3.30
2022-11-20T06:35:12.698Z,3.30
2022-11-20T06:36:16.849Z,3.31
2022-11-20T06:37:21.002Z,3.32
2022-11-20T06:38:25.130Z,3.34
2022-11-20T06:39:29.396Z,3.35
2022-11-20T06:40:33.498Z,3.35
2022-11-20T06:41:37.668Z,3.35
2022-11-20T06:42:41.791Z,3.35
2022-11-20T06:43:45.944Z,3.35
2022-11-20T06:44:50.165Z,3.35
2022-11-20T06:45:54.250Z,3.36
2022-11-20T06:46:58.526Z,3.37
2022-11-20T06:48:02.603Z,3.36
2022-11-20T06:49:06.789Z,3.36
2022-11-20T06:50:10.930Z,3.36
2022-11-20T06:51:15.069Z,3.37
2022-11-20T06:52:19.218Z,3.37
2022-11-20T06:53:23.348Z,3.37
2022-11-20T06:54:27.476Z,3.33
2022-11-20T06:55:31.653Z,3.30
2022-11-20T06:56:35.798Z,3.29
2022-11-20T06:57:42.914Z,3.27
2022-11-20T06:58:46.177Z,3.26
2022-11-20T06:59:50.314Z,3.26
2022-11-20T07:00:54.622Z,3.26
2022-11-20T07:01:58.585Z,3.25
2022-11-20T07:03:02.859Z,3.24
2022-11-20T07:04:06.963Z,3.24
2022-11-20T07:05:11.113Z,3.26
2022-11-20T07:06:15.256Z,3.28
2022-11-20T07:07:19.477Z,3.30
2022-11-20T07:08:23.550Z,3.30
2022-11-20T07:09:27.879Z,3.30
2022-11-20T07:10:31.813Z,3.30
2022-11-20T07:11:35.975Z,3.29
2022-11-20T07:12:40.155Z,3.30
2022-11-20T07:13:44.304Z,3.31
2022-11-20T07:14:48.451Z,3.33
2022-11-20T07:15:52.472Z,3.34
2022-11-20T07:16:56.716Z,3.34
2022-11-20T07:18:00.851Z,3.35
2022-11-20T07:19:05.003Z,3.36
2022-11-20T07:20:09.156Z,3.36
2022-11-20T07:21:13.335Z,3.36
2022-11-20T07:22:17.483Z,3.36
2022-11-20T07:23:21.561Z,3.38
2022-11-20T07:24:25.725Z,3.39
2022-11-20T07:25:29.917Z,3.41
2022-11-20T07:26:34.169Z,3.42
2022-11-20T07:27:38.283Z,3.43
2022-11-20T07:28:42.339Z,3.44
2022-11-20T07:29:46.562Z,3.45
2022-11-20T07:30:50.723Z,3.44
2022-11-20T07:31:54.877Z,3.43
2022-11-20T07:32:59.085Z,3.43
2022-11-20T07:34:03.224Z,3.43
2022-11-20T07:35:07.374Z,3.44
2022-11-20T07:36:11.522Z,3.46
2022-11-20T07:37:15.671Z,3.47
2022-11-20T07:38:19.818Z,3.49
2022-11-20T07:39:24.172Z,3.50
2022-11-20T07:40:28.176Z,3.51
2022-11-20T07:41:32.320Z,3.53
2022-11-20T07:42:36.463Z,3.55
2022-11-20T07:43:41.633Z,3.57
2022-11-20T07:44:44.857Z,3.59
2022-11-20T07:45:49.005Z,3.61
2022-11-20T07:46:53.256Z,3.62
2022-11-20T07:47:57.437Z,3.64
2022-11-20T07:49:01.636Z,3.65
2022-11-20T07:50:05.753Z,3.66
2022-11-20T07:51:09.904Z,3.66
2022-11-20T07:52:14.035Z,3.63
2022-11-20T07:53:18.177Z,3.60
2022-11-20T07:54:22.310Z,3.60
2022-11-20T07:55:26.459Z,3.58
2022-11-20T07:56:30.598Z,3.57
2022-11-20T07:57:34.860Z,3.58
2022-11-20T07:58:39.031Z,3.55
2022-11-20T07:59:43.151Z,3.55
2022-11-20T08:00:48.310Z,3.56
2022-11-20T08:01:51.967Z,3.57
2022-11-20T08:02:56.164Z,3.57
2022-11-20T08:04:00.414Z,3.60
2022-11-20T08:05:04.544Z,3.63
2022-11-20T08:06:08.685Z,3.64
2022-11-20T08:07:12.905Z,3.66
2022-11-20T08:08:16.959Z,3.69
2022-11-20T08:09:21.537Z,3.70
2022-11-20T08:10:25.443Z,3.71
2022-11-20T08:11:29.514Z,3.72
2022-11-20T08:12:33.723Z,3.73
2022-11-20T08:13:38.031Z,3.74
2022-11-20T08:14:42.130Z,3.74
2022-11-20T08:15:46.296Z,3.76
2022-11-20T08:16:50.474Z,3.77
2022-11-20T08:18:23.399Z,3.77
2022-11-20T08:18:58.661Z,3.75
2022-11-20T08:20:02.804Z,3.74
2022-11-20T08:21:07.005Z,3.74
2022-11-20T08:22:11.143Z,3.75
2022-11-20T08:23:15.323Z,3.76
2022-11-20T08:24:19.414Z,3.77
2022-11-20T08:25:23.460Z,3.77
2022-11-20T08:26:27.692Z,3.74
2022-11-20T08:27:31.847Z,3.71
2022-11-20T08:28:36.017Z,3.70
2022-11-20T08:29:40.262Z,3.70
2022-11-20T08:30:44.389Z,3.70
2022-11-20T08:31:48.558Z,3.71
2022-11-20T08:32:52.789Z,3.72
2022-11-20T08:33:56.944Z,3.74
2022-11-20T08:35:01.056Z,3.76
2022-11-20T08:36:05.284Z,3.77
2022-11-20T08:37:12.375Z,3.78
2022-11-20T08:38:15.014Z,3.79
2022-11-20T08:39:19.216Z,3.81
2022-11-20T08:40:23.169Z,3.81
2022-11-20T08:41:27.464Z,3.82
2022-11-20T08:42:31.572Z,3.83
2022-11-20T08:43:35.828Z,3.84
2022-11-20T08:44:39.895Z,3.84
2022-11-20T08:45:44.207Z,3.85
2022-11-20T08:46:48.384Z,3.85
2022-11-20T08:47:52.491Z,3.86
2022-11-20T08:48:56.652Z,3.88
2022-11-20T08:50:00.815Z,3.90
2022-11-20T08:51:04.995Z,3.92
2022-11-20T08:52:09.141Z,3.94
2022-11-20T08:53:13.274Z,3.94
2022-11-20T08:54:17.431Z,3.96
2022-11-20T08:55:21.600Z,3.97
2022-11-20T08:56:25.877Z,3.98
2022-11-20T08:57:29.942Z,3.98
2022-11-20T08:58:54.898Z,4.00
2022-11-20T09:00:05.199Z,4.00
2022-11-20T09:00:42.591Z,4.01
2022-11-20T09:01:46.659Z,4.01
2022-11-20T09:02:50.799Z,4.01
2022-11-20T09:03:54.958Z,4.01
2022-11-20T09:04:59.119Z,4.02
2022-11-20T09:06:03.369Z,4.03
2022-11-20T09:07:07.586Z,4.04
2022-11-20T09:08:11.634Z,4.04
2022-11-20T09:09:15.816Z,4.05
2022-11-20T09:10:28.051Z,4.06
2022-11-20T09:11:24.383Z,4.07
2022-11-20T09:12:28.370Z,4.07
2022-11-20T09:13:32.501Z,4.07
2022-11-20T09:14:36.653Z,4.07
2022-11-20T09:15:40.798Z,4.06
2022-11-20T09:16:44.953Z,4.06
2022-11-20T09:17:49.134Z,4.06
2022-11-20T09:19:02.152Z,4.06
2022-11-20T09:19:57.470Z,4.06
2022-11-20T09:21:01.686Z,4.07
2022-11-20T09:22:05.786Z,4.09
2022-11-20T09:23:09.919Z,4.09
2022-11-20T09:24:14.124Z,4.10
2022-11-20T09:25:18.332Z,4.10
2022-11-20T09:26:25.555Z,4.11
2022-11-20T09:27:28.621Z,4.11
2022-11-20T09:28:32.816Z,4.10
2022-11-20T09:29:36.994Z,4.10
2022-11-20T09:30:41.133Z,4.09
2022-11-20T09:31:45.261Z,4.09
2022-11-20T09:32:49.424Z,4.09
2022-11-20T09:33:53.582Z,4.09
2022-11-20T09:34:57.734Z,4.09
2022-11-20T09:36:01.887Z,4.08
2022-11-20T09:37:07.644Z,4.08
2022-11-20T09:38:10.309Z,4.07
2022-11-20T09:39:14.468Z,4.07
2022-11-20T09:40:18.658Z,4.06
2022-11-20T09:41:22.958Z,4.05
2022-11-20T09:42:27.003Z,4.04
2022-11-20T09:43:34.879Z,4.03
2022-11-20T09:44:35.344Z,4.01
2022-11-20T09:45:39.561Z,4.00
2022-11-20T09:46:43.693Z,3.98
2022-11-20T09:47:47.911Z,3.96
2022-11-20T09:48:52.013Z,3.96
2022-11-20T09:49:56.194Z,3.96
2022-11-20T09:51:00.313Z,3.97
2022-11-20T09:52:04.485Z,3.98
2022-11-20T09:53:08.685Z,3.98
2022-11-20T09:54:12.884Z,3.98
2022-11-20T09:55:17.050Z,3.99
2022-11-20T09:56:22.442Z,4.00
2022-11-20T09:57:25.349Z,4.00
2022-11-20T09:58:29.510Z,4.01
2022-11-20T09:59:33.672Z,4.01
2022-11-20T10:00:37.897Z,4.01
2022-11-20T10:01:42.047Z,4.02
2022-11-20T10:02:46.223Z,4.02
2022-11-20T10:03:50.390Z,4.02
2022-11-20T10:04:54.496Z,4.02
2022-11-20T10:05:58.770Z,4.03
2022-11-20T10:07:32.013Z,4.03
2022-11-20T10:08:07.056Z,4.05
2022-11-20T10:09:11.023Z,4.07
2022-11-20T10:10:15.287Z,4.10
2022-11-20T10:11:19.404Z,4.11
2022-11-20T10:12:23.588Z,4.13
2022-11-20T10:13:27.723Z,4.15
2022-11-20T10:14:31.905Z,4.18
2022-11-20T10:15:36.084Z,4.19
2022-11-20T10:16:41.351Z,4.18
2022-11-20T10:17:44.358Z,4.15
2022-11-20T10:18:48.619Z,4.13
2022-11-20T10:19:52.731Z,4.14
2022-11-20T10:20:56.912Z,4.16
2022-11-20T10:22:01.045Z,4.18
2022-11-20T10:23:05.304Z,4.20
2022-11-20T10:24:09.423Z,4.22
2022-11-20T10:25:13.561Z,4.23
2022-11-20T10:26:17.623Z,4.25
2022-11-20T10:27:21.877Z,4.26
2022-11-20T10:28:26.041Z,4.26
2022-11-20T10:29:30.232Z,4.25
2022-11-20T10:30:34.469Z,4.27
2022-11-20T10:31:38.555Z,4.28
2022-11-20T10:32:42.692Z,4.30
2022-11-20T10:34:10.476Z,4.29
2022-11-20T10:34:51.023Z,4.28
2022-11-20T10:35:55.180Z,4.26
2022-11-20T10:36:59.411Z,4.26
2022-11-20T10:38:03.610Z,4.29
2022-11-20T10:39:07.724Z,4.31
2022-11-20T10:40:11.882Z,4.33
2022-11-20T10:41:16.067Z,4.33
2022-11-20T10:42:20.238Z,4.32
2022-11-20T10:43:24.397Z,4.32
2022-11-20T10:44:28.656Z,4.32
2022-11-20T10:45:32.718Z,4.33
2022-11-20T10:46:36.994Z,4.35
2022-11-20T10:47:41.140Z,4.38
2022-11-20T10:48:45.303Z,4.39
2022-11-20T10:49:49.481Z,4.36
2022-11-20T10:50:53.776Z,4.33
2022-11-20T10:51:57.826Z,4.33
2022-11-20T10:53:02.020Z,4.34
2022-11-20T10:54:06.142Z,4.35
2022-11-20T10:55:10.385Z,4.36
2022-11-20T10:56:14.387Z,4.38
2022-11-20T10:57:18.631Z,4.37
2022-11-20T10:58:22.767Z,4.34
2022-11-20T10:59:26.919Z,4.33
2022-11-20T11:00:31.043Z,4.31
2022-11-20T11:01:35.279Z,4.31
2022-11-20T11:02:39.439Z,4.28
2022-11-20T11:03:43.601Z,4.25
2022-11-20T11:04:47.679Z,4.23
2022-11-20T11:05:54.911Z,4.21
2022-11-20T11:06:58.236Z,4.20
2022-11-20T11:08:02.200Z,4.21
2022-11-20T11:09:06.275Z,4.23
2022-11-20T11:10:10.546Z,4.25
2022-11-20T11:11:14.706Z,4.27
2022-11-20T11:12:18.973Z,4.29
2022-11-20T11:13:23.178Z,4.32
2022-11-20T11:14:27.331Z,4.35
2022-11-20T11:15:31.380Z,4.38
2022-11-20T11:16:35.595Z,4.39
2022-11-20T11:17:39.732Z,4.38
2022-11-20T11:18:43.941Z,4.36
2022-11-20T11:20:02.174Z,4.36
2022-11-20T11:21:05.168Z,4.36
2022-11-20T11:22:09.369Z,4.35
2022-11-20T11:23:13.527Z,4.34
2022-11-20T11:24:40.292Z,4.34
2022-11-20T11:25:21.756Z,4.37
2022-11-20T11:26:26.020Z,4.41
2022-11-20T11:27:30.180Z,4.47
2022-11-20T11:28:34.385Z,4.52
2022-11-20T11:29:38.566Z,4.56
2022-11-20T11:30:42.797Z,4.58
2022-11-20T11:31:46.890Z,4.58
2022-11-20T11:32:51.059Z,4.58
2022-11-20T11:33:55.213Z,4.58
2022-11-20T11:34:59.378Z,4.60
2022-11-20T11:36:03.583Z,4.61
2022-11-20T11:37:07.720Z,4.63
2022-11-20T11:38:11.948Z,4.63
2022-11-20T11:39:16.039Z,4.63
2022-11-20T11:40:24.627Z,4.63
2022-11-20T11:41:24.485Z,4.63
2022-11-20T11:42:28.596Z,4.62
2022-11-20T11:43:36.736Z,4.61
2022-11-20T11:44:37.035Z,4.59
2022-11-20T11:45:41.167Z,4.55
2022-11-20T11:46:45.365Z,4.54
2022-11-20T11:47:49.583Z,4.53
2022-11-20T11:48:53.664Z,4.53
2022-11-20T11:49:57.905Z,4.53
2022-11-20T11:51:02.042Z,4.54
2022-11-20T11:52:06.234Z,4.54
2022-11-20T11:53:10.372Z,4.52
2022-11-20T11:54:14.543Z,4.53
2022-11-20T11:55:18.740Z,4.56
2022-11-20T11:56:22.907Z,4.59
2022-11-20T11:57:27.066Z,4.64
2022-11-20T11:58:31.267Z,4.70
2022-11-20T11:59:35.436Z,4.73
2022-11-20T12:00:39.609Z,4.75
2022-11-20T12:01:43.884Z,4.76
2022-11-20T12:02:48.001Z,4.74
2022-11-20T12:03:52.145Z,4.71
2022-11-20T12:04:56.407Z,4.72
2022-11-20T12:06:00.570Z,4.74
2022-11-20T12:07:24.267Z,4.77
2022-11-20T12:08:12.508Z,4.80
2022-11-20T12:09:13.064Z,4.84
2022-11-20T12:10:17.217Z,4.87
2022-11-20T12:11:21.430Z,4.88
2022-11-20T12:12:25.542Z,4.88
2022-11-20T12:13:29.706Z,4.89
2022-11-20T12:14:33.977Z,4.91
2022-11-20T12:15:38.093Z,4.89
2022-11-20T12:16:42.360Z,4.89
2022-11-20T12:17:46.567Z,4.87
2022-11-20T12:18:50.670Z,4.87
2022-11-20T12:19:54.831Z,4.87
2022-11-20T12:20:58.969Z,4.86
2022-11-20T12:22:05.149Z,4.84
2022-11-20T12:23:07.217Z,4.82
2022-11-20T12:24:11.447Z,4.82
2022-11-20T12:25:15.627Z,4.82
2022-11-20T12:26:19.792Z,4.77
2022-11-20T12:27:24.006Z,4.72
2022-11-20T12:28:28.179Z,4.64
2022-11-20T12:29:32.377Z,4.55
2022-11-20T12:30:36.635Z,4.49
2022-11-20T12:31:40.752Z,4.46
2022-11-20T12:32:44.943Z,4.46
2022-11-20T12:33:49.109Z,4.46
2022-11-20T12:34:53.386Z,4.47
2022-11-20T12:35:57.533Z,4.48
2022-11-20T12:37:01.702Z,4.50
2022-11-20T12:38:05.876Z,4.51
2022-11-20T12:39:10.042Z,4.54
2022-11-20T12:40:14.274Z,4.56
2022-11-20T12:41:18.481Z,4.57
2022-11-20T12:42:22.655Z,4.59
2022-11-20T12:43:26.877Z,4.60
2022-11-20T12:44:30.993Z,4.60
2022-11-20T12:45:35.230Z,4.56
2022-11-20T12:46:39.379Z,4.54
2022-11-20T12:47:43.542Z,4.53
2022-11-20T12:48:47.812Z,4.52
2022-11-20T12:49:51.926Z,4.52
2022-11-20T12:51:17.062Z,4.54
2022-11-20T12:52:00.336Z,4.55
2022-11-20T12:53:04.447Z,4.56
2022-11-20T12:54:08.722Z,4.57
2022-11-20T12:55:12.937Z,4.58
2022-11-20T12:56:17.038Z,4.58
2022-11-20T12:57:21.216Z,4.58
2022-11-20T12:58:25.360Z,4.57
2022-11-20T12:59:29.476Z,4.57
2022-11-20T13:00:33.622Z,4.57
2022-11-20T13:01:37.966Z,4.59
2022-11-20T13:02:42.024Z,4.60
2022-11-20T13:03:46.283Z,4.61
2022-11-20T13:04:50.455Z,4.62
2022-11-20T13:05:54.595Z,4.64
2022-11-20T13:06:58.873Z,4.64
2022-11-20T13:08:02.979Z,4.64
2022-11-20T13:09:07.129Z,4.61
2022-11-20T13:10:13.051Z,4.57
2022-11-20T13:11:15.636Z,4.51
2022-11-20T13:12:19.724Z,4.47
2022-11-20T13:13:23.877Z,4.46
2022-11-20T13:14:28.051Z,4.45
2022-11-20T13:15:32.331Z,4.43
2022-11-20T13:16:36.436Z,4.40
2022-11-20T13:17:40.684Z,4.38
2022-11-20T13:18:44.908Z,4.37
2022-11-20T13:19:48.997Z,4.39
2022-11-20T13:20:53.138Z,4.42
2022-11-20T13:21:57.299Z,4.44
2022-11-20T13:23:01.468Z,4.43
2022-11-20T13:24:05.722Z,4.42
2022-11-20T13:25:15.223Z,4.43
2022-11-20T13:26:13.987Z,4.45
2022-11-20T13:27:18.183Z,4.48
2022-11-20T13:28:22.335Z,4.51
2022-11-20T13:29:26.608Z,4.54
2022-11-20T13:30:30.701Z,4.58
2022-11-20T13:31:34.890Z,4.59
2022-11-20T13:32:39.160Z,4.61
2022-11-20T13:33:43.167Z,4.62
2022-11-20T13:34:47.371Z,4.64
2022-11-20T13:35:51.590Z,4.65
2022-11-20T13:36:55.730Z,4.65
2022-11-20T13:37:59.888Z,4.66
2022-11-20T13:39:04.062Z,4.68
2022-11-20T13:40:08.345Z,4.70
2022-11-20T13:41:12.448Z,4.71
2022-11-20T13:42:16.558Z,4.70
2022-11-20T13:43:20.721Z,4.70
2022-11-20T13:44:25.385Z,4.69
2022-11-20T13:45:29.090Z,4.69
2022-11-20T13:46:33.341Z,4.70
2022-11-20T13:47:37.519Z,4.70
2022-11-20T13:48:41.659Z,4.69
2022-11-20T13:49:45.788Z,4.68
2022-11-20T13:50:49.927Z,4.68
2022-11-20T13:51:54.100Z,4.66
2022-11-20T13:52:58.295Z,4.61
2022-11-20T13:54:02.438Z,4.58
2022-11-20T13:55:06.581Z,4.55
2022-11-20T13:56:10.767Z,4.50
2022-11-20T13:57:14.978Z,4.46
2022-11-20T13:58:19.138Z,4.45
2022-11-20T13:59:23.277Z,4.46
2022-11-20T14:00:27.494Z,4.48
2022-11-20T14:01:31.629Z,4.47
2022-11-20T14:02:35.742Z,4.43
2022-11-20T14:04:07.388Z,4.40
2022-11-20T14:04:44.048Z,4.37
2022-11-20T14:05:48.233Z,4.35
2022-11-20T14:06:52.434Z,4.28
2022-11-20T14:07:56.617Z,4.22
2022-11-20T14:09:00.752Z,4.10
2022-11-20T14:10:04.879Z,4.01
2022-11-20T14:11:09.045Z,3.94
2022-11-20T14:12:13.193Z,3.93
2022-11-20T14:13:17.388Z,3.90
2022-11-20T14:14:22.021Z,3.88